Time;durP1;ratioP1;P1;durP2;ratioP2;P2;SDS_P1;SDS_P2;PMS_P1;PMS_P2;Temp;Humidity;BMP_temperature;BMP_pressure;BME280_temperature;BME280_humidity;BME280_pressure;Samples;Min_cycle;Max_cycle;Signal;HPM_P1;HPM_P2
2023/01/28 00:00:08;;;;;;;13.93;7.92;;;18.10;76.50;;;;;;1843840;76;21400;-86
2023/01/28 00:02:38;;;;;;;14.40;8.10;;;18.10;76.70;;;;;;1844346;77;21200;-85
2023/01/28 00:05:10;;;;;;;14.10;7.50;;;18.10;76.50;;;;;;1858288;76;21114;-86
2023/01/28 00:07:41;;;;;;;11.15;7.95;;;18.10;76.40;;;;;;1850379;76;21123;-83
2023/01/28 00:10:12;;;;;;;13.45;7.70;;;18.10;76.50;;;;;;1873025;76;21126;-85
2023/01/28 00:12:43;;;;;;;10.75;6.62;;;18.10;76.10;;;;;;1856538;76;21130;-87
2023/01/28 00:15:14;;;;;;;12.13;7.25;;;18.10;76.20;;;;;;1838357;77;21217;-85
2023/01/28 00:17:45;;;;;;;12.58;6.72;;;18.10;76.10;;;;;;1860673;76;21064;-85
2023/01/28 00:20:16;;;;;;;10.00;6.90;;;18.10;75.40;;;;;;1846247;78;21060;-86
2023/01/28 00:22:50;;;;;;;10.60;7.15;;;18.10;75.70;;;;;;1854001;76;21260;-87
2023/01/28 00:25:21;;;;;;;12.88;7.28;;;18.20;75.70;;;;;;1848177;76;21100;-85
2023/01/28 00:27:52;;;;;;;10.78;7.40;;;18.20;75.60;;;;;;1857648;76;21425;-85
2023/01/28 00:30:22;;;;;;;14.58;8.10;;;18.30;75.80;;;;;;1848856;76;21193;-89
2023/01/28 00:32:55;;;;;;;13.78;8.60;;;18.30;75.20;;;;;;1857017;76;21413;-85
2023/01/28 00:35:25;;;;;;;15.83;8.88;;;18.30;75.10;;;;;;1850627;77;21151;-87
2023/01/28 00:37:56;;;;;;;16.32;8.43;;;18.40;75.50;;;;;;1858589;77;21155;-86
2023/01/28 00:40:27;;;;;;;15.30;9.90;;;18.40;75.10;;;;;;1852135;76;21127;-87
2023/01/28 00:42:58;;;;;;;15.53;10.85;;;18.50;74.80;;;;;;1851906;76;21064;-87
2023/01/28 00:45:29;;;;;;;18.55;9.65;;;18.50;74.40;;;;;;1846830;76;21582;-87
2023/01/28 00:47:59;;;;;;;21.62;12.95;;;18.60;74.50;;;;;;1844000;78;21185;-87
2023/01/28 00:50:30;;;;;;;20.32;12.78;;;18.60;73.90;;;;;;1828225;77;21188;-85
2023/01/28 00:53:01;;;;;;;24.72;11.38;;;18.60;73.90;;;;;;1824397;77;21094;-87
2023/01/28 00:55:33;;;;;;;20.37;12.43;;;18.60;74.20;;;;;;1811917;78;21097;-87
2023/01/28 00:58:04;;;;;;;18.95;12.47;;;18.60;74.10;;;;;;1822252;77;21147;-85
2023/01/28 01:00:35;;;;;;;22.00;12.37;;;18.60;73.90;;;;;;1819436;78;21606;-88
2023/01/28 01:03:06;;;;;;;16.12;10.55;;;18.60;74.10;;;;;;1816919;77;21103;-88
2023/01/28 01:05:36;;;;;;;18.05;11.73;;;18.60;74.50;;;;;;1813938;78;21163;-87
2023/01/28 01:08:07;;;;;;;20.82;11.57;;;18.70;75.10;;;;;;1808929;79;21111;-88
2023/01/28 01:10:39;;;;;;;20.57;13.10;;;18.80;74.00;;;;;;1797948;78;21142;-84
2023/01/28 01:13:09;;;;;;;19.23;11.28;;;18.90;73.60;;;;;;1821574;77;21150;-86
2023/01/28 01:15:40;;;;;;;21.50;11.78;;;18.90;73.50;;;;;;1819468;77;21193;-86
2023/01/28 01:18:11;;;;;;;19.67;14.23;;;19.00;73.20;;;;;;1847361;78;21095;-85
2023/01/28 01:20:44;;;;;;;26.68;15.10;;;19.10;72.50;;;;;;1812431;78;21220;-85
2023/01/28 01:23:15;;;;;;;25.10;13.15;;;19.20;72.30;;;;;;1824761;78;21068;-86
2023/01/28 01:25:46;;;;;;;22.52;14.18;;;19.20;72.50;;;;;;1800135;79;21150;-86
2023/01/28 01:28:27;;;;;;;18.60;11.73;;;19.10;72.60;;;;;;1824871;77;21249;-86
2023/01/28 01:31:04;;;;;;;21.93;12.73;;;19.10;73.00;;;;;;1821367;79;21103;-87
2023/01/28 01:33:35;;;;;;;23.98;11.97;;;19.20;72.70;;;;;;1826073;78;21133;-86
2023/01/28 01:36:08;;;;;;;18.32;11.85;;;19.20;72.80;;;;;;1788061;79;21202;-86
2023/01/28 01:38:41;;;;;;;19.92;12.25;;;19.30;72.60;;;;;;1808023;77;21373;-84
2023/01/28 01:41:14;;;;;;;23.40;11.88;;;19.30;72.50;;;;;;1794205;78;21149;-85
2023/01/28 01:43:55;;;;;;;21.20;12.20;;;19.40;72.20;;;;;;1815329;77;21145;-87
2023/01/28 01:46:42;;;;;;;24.12;12.50;;;19.50;71.60;;;;;;1822916;77;21198;-87
2023/01/28 01:49:21;;;;;;;22.77;13.30;;;19.50;71.40;;;;;;1799394;78;21208;-87
2023/01/28 01:52:09;;;;;;;20.02;12.88;;;19.50;71.40;;;;;;1804986;78;21213;-87
2023/01/28 01:54:43;;;;;;;20.75;13.10;;;19.50;71.30;;;;;;1783111;79;21107;-85
2023/01/28 01:57:17;;;;;;;18.65;11.22;;;19.40;71.20;;;;;;1804676;78;21217;-87
2023/01/28 01:59:48;;;;;;;22.40;12.10;;;19.40;71.30;;;;;;1824382;78;21154;-86
2023/01/28 02:02:19;;;;;;;16.97;11.48;;;19.50;71.40;;;;;;1808176;77;21083;-85
2023/01/28 02:04:50;;;;;;;20.12;11.20;;;19.60;71.50;;;;;;1806213;78;21179;-85
2023/01/28 02:07:21;;;;;;;13.22;9.90;;;19.70;70.60;;;;;;1808705;78;21123;-86
2023/01/28 02:09:51;;;;;;;15.83;10.15;;;19.70;69.50;;;;;;1830017;77;21192;-85
2023/01/28 02:12:25;;;;;;;16.62;10.68;;;19.70;69.30;;;;;;1810942;77;21157;-86
2023/01/28 02:15:01;;;;;;;18.02;10.35;;;19.80;69.60;;;;;;1801106;78;21069;-86
2023/01/28 02:17:32;;;;;;;17.43;11.30;;;19.90;68.90;;;;;;1812732;77;21209;-85
2023/01/28 02:20:06;;;;;;;14.95;10.03;;;19.90;68.80;;;;;;1762010;80;21252;-83
2023/01/28 02:22:58;;;;;;;16.05;10.43;;;20.00;69.10;;;;;;1798253;78;21254;-84
2023/01/28 02:25:47;;;;;;;16.70;10.28;;;20.00;68.50;;;;;;1788582;79;21157;-82
2023/01/28 02:28:46;;;;;;;14.90;10.98;;;20.10;68.60;;;;;;1819303;77;21122;-85
2023/01/28 02:31:24;;;;;;;21.82;12.23;;;20.10;68.00;;;;;;1817245;77;21262;-84
2023/01/28 02:34:16;;;;;;;19.23;11.83;;;20.30;67.50;;;;;;1816934;77;21239;-88
2023/01/28 02:36:49;;;;;;;16.50;10.90;;;20.30;67.20;;;;;;1804941;78;21091;-88
2023/01/28 02:39:25;;;;;;;19.50;11.50;;;20.30;67.30;;;;;;1819831;77;21127;-89
2023/01/28 02:42:00;;;;;;;16.82;11.70;;;20.40;66.20;;;;;;1816120;77;21092;-85
2023/01/28 02:44:31;;;;;;;15.85;11.10;;;20.30;66.60;;;;;;1797442;78;21124;-87
2023/01/28 02:49:54;;;;;;;18.02;11.48;;;20.30;66.40;;;;;;1870086;76;21669;-69
2023/01/28 02:55:42;;;;;;;17.20;11.55;;;20.30;66.60;;;;;;1843325;76;21544;-71
2023/01/28 02:58:19;;;;;;;20.00;11.67;;;20.20;66.70;;;;;;1855353;76;21135;-69
2023/01/28 03:01:05;;;;;;;18.87;12.45;;;20.20;67.40;;;;;;1821393;76;21243;-69
2023/01/28 03:03:44;;;;;;;23.85;12.78;;;20.30;67.50;;;;;;1826121;76;21145;-70
2023/01/28 03:06:18;;;;;;;19.70;12.40;;;20.30;67.20;;;;;;1788612;78;21719;-70
2023/01/28 03:09:23;;;;;;;22.98;12.13;;;20.40;67.00;;;;;;1829208;77;21162;-69
2023/01/28 03:37:53;;;;;;;18.50;12.00;;;21.10;63.90;;;;;;1833559;78;21598;-69
2023/01/28 03:40:25;;;;;;;23.02;13.18;;;21.20;64.50;;;;;;1831288;76;21551;-69
2023/01/28 03:42:56;;;;;;;17.07;12.20;;;21.30;63.40;;;;;;1838437;77;21155;-70
2023/01/28 03:45:27;;;;;;;19.15;12.73;;;21.40;63.20;;;;;;1827495;77;21092;-71
2023/01/28 03:47:57;;;;;;;16.10;12.05;;;21.50;63.00;;;;;;1838583;77;21189;-70
2023/01/28 03:50:29;;;;;;;17.32;12.37;;;21.60;62.10;;;;;;1822841;77;21077;-70
2023/01/28 03:53:10;;;;;;;18.73;13.18;;;21.70;61.90;;;;;;1818985;78;21210;-70
2023/01/28 03:55:33;;;;;;;20.10;11.57;;;21.80;61.90;;;;;;1826117;77;21582;-70
2023/01/28 03:58:11;;;;;;;20.25;12.55;;;21.80;61.30;;;;;;1822431;78;21067;-70
2023/01/28 04:00:43;;;;;;;18.90;11.93;;;21.90;60.60;;;;;;1828818;77;21209;-70
2023/01/28 04:03:17;;;;;;;20.43;12.55;;;21.90;61.10;;;;;;1854807;76;21213;-70
2023/01/28 04:06:02;;;;;;;17.67;12.10;;;22.00;60.50;;;;;;1845062;76;21611;-71
2023/01/28 04:08:33;;;;;;;21.02;12.93;;;22.10;60.10;;;;;;1853772;76;21154;-72
2023/01/28 04:11:18;;;;;;;19.65;10.85;;;22.30;59.80;;;;;;1852059;76;21135;-71
2023/01/28 04:13:58;;;;;;;20.50;11.18;;;22.40;59.60;;;;;;1844476;76;21166;-72
2023/01/28 04:16:29;;;;;;;16.37;11.38;;;22.50;59.10;;;;;;1848149;76;21489;-71
2023/01/28 04:19:07;;;;;;;17.77;10.78;;;22.50;59.20;;;;;;1863809;76;21189;-72
2023/01/28 04:21:38;;;;;;;17.82;10.05;;;22.70;58.70;;;;;;1848183;76;21084;-70
2023/01/28 04:24:10;;;;;;;18.42;9.88;;;22.80;58.50;;;;;;1850718;76;21264;-70
2023/01/28 04:26:41;;;;;;;14.70;9.93;;;22.90;58.00;;;;;;1848799;76;21969;-71
2023/01/28 04:29:12;;;;;;;15.72;9.65;;;23.00;57.80;;;;;;1843327;77;21187;-70
2023/01/28 04:31:43;;;;;;;13.80;10.25;;;23.10;57.70;;;;;;1831946;76;21051;-70
2023/01/28 04:34:14;;;;;;;13.50;9.38;;;23.20;57.50;;;;;;1852849;76;21106;-71
2023/01/28 04:36:45;;;;;;;15.93;10.00;;;23.30;57.40;;;;;;1848259;76;21153;-71
2023/01/28 04:39:16;;;;;;;15.10;9.93;;;23.40;57.10;;;;;;1844041;77;21244;-71
2023/01/28 04:41:47;;;;;;;15.35;9.80;;;23.50;57.30;;;;;;1845517;76;21084;-70
2023/01/28 04:44:18;;;;;;;18.65;10.65;;;23.70;56.40;;;;;;1842392;77;21645;-70
2023/01/28 04:46:49;;;;;;;15.13;9.55;;;23.70;56.60;;;;;;1845336;77;21106;-71
2023/01/28 04:49:20;;;;;;;14.43;9.88;;;23.80;55.80;;;;;;1850255;77;21237;-71
2023/01/28 04:51:51;;;;;;;16.70;10.28;;;24.00;56.00;;;;;;1848517;76;21146;-72
2023/01/28 04:54:22;;;;;;;16.17;10.75;;;24.00;56.20;;;;;;1813614;78;21186;-70
2023/01/28 04:56:55;;;;;;;17.23;10.45;;;24.10;55.40;;;;;;1819505;77;21083;-71
2023/01/28 04:59:26;;;;;;;16.00;10.05;;;24.20;55.20;;;;;;1796324;78;21195;-71
2023/01/28 05:01:57;;;;;;;15.38;9.68;;;24.20;55.60;;;;;;1820134;77;21161;-71
2023/01/28 05:04:28;;;;;;;16.00;10.18;;;24.30;54.70;;;;;;1809182;78;21076;-70
2023/01/28 05:07:01;;;;;;;20.02;11.35;;;24.40;55.60;;;;;;1830074;76;21095;-70
2023/01/28 05:09:32;;;;;;;14.28;10.28;;;24.50;54.90;;;;;;1818238;77;21205;-72
2023/01/28 05:12:04;;;;;;;17.32;10.08;;;24.60;54.10;;;;;;1821197;77;21422;-71
2023/01/28 05:14:35;;;;;;;14.35;9.23;;;24.70;53.80;;;;;;1807672;78;21084;-70
2023/01/28 05:17:08;;;;;;;17.17;10.30;;;24.80;53.90;;;;;;1787738;78;21538;-72
2023/01/28 05:19:39;;;;;;;15.10;10.15;;;24.80;53.80;;;;;;1806657;78;21102;-71
2023/01/28 05:22:11;;;;;;;13.62;10.13;;;24.90;53.80;;;;;;1821958;77;21169;-73
2023/01/28 05:24:42;;;;;;;13.78;10.50;;;24.90;54.10;;;;;;1858990;77;21232;-73
2023/01/28 05:27:13;;;;;;;17.40;11.00;;;25.00;53.60;;;;;;1831710;77;21731;-73
2023/01/28 05:29:44;;;;;;;15.78;9.38;;;25.10;53.20;;;;;;1821977;77;21146;-72
2023/01/28 05:32:19;;;;;;;16.30;10.93;;;25.10;52.80;;;;;;1863662;76;21146;-72
2023/01/28 05:34:50;;;;;;;15.05;9.83;;;25.10;53.50;;;;;;1858099;76;21642;-71
2023/01/28 05:37:21;;;;;;;13.80;10.30;;;25.30;52.90;;;;;;1846943;77;21151;-72
2023/01/28 05:39:52;;;;;;;16.40;10.58;;;25.30;52.70;;;;;;1842341;77;21141;-73
2023/01/28 05:42:23;;;;;;;17.92;10.20;;;25.40;52.40;;;;;;1814333;79;21206;-72
2023/01/28 05:44:54;;;;;;;15.90;8.70;;;25.60;52.90;;;;;;1854601;76;21116;-71
2023/01/28 05:47:24;;;;;;;19.17;8.80;;;25.60;52.40;;;;;;1844797;77;21737;-72
2023/01/28 05:49:55;;;;;;;13.00;8.15;;;25.60;51.70;;;;;;1791849;79;21263;-72
2023/01/28 05:52:26;;;;;;;12.45;8.93;;;25.70;52.50;;;;;;1813736;77;21694;-72
2023/01/28 05:54:58;;;;;;;18.10;9.35;;;25.70;51.90;;;;;;1820481;76;21137;-71
2023/01/28 05:57:29;;;;;;;13.45;9.75;;;25.70;52.20;;;;;;1821889;77;21607;-73
2023/01/28 06:00:00;;;;;;;14.10;9.28;;;25.70;51.60;;;;;;1831669;77;21599;-73
2023/01/28 06:02:32;;;;;;;15.88;9.08;;;25.70;51.40;;;;;;1788136;79;21166;-72
2023/01/28 06:05:03;;;;;;;15.75;10.75;;;25.70;52.00;;;;;;1815286;78;21215;-72
2023/01/28 06:07:53;;;;;;;16.37;9.85;;;25.70;52.20;;;;;;1841048;76;21217;-72
2023/01/28 06:10:24;;;;;;;17.67;9.95;;;25.80;51.50;;;;;;1803673;78;21610;-72
2023/01/28 06:12:55;;;;;;;15.20;9.83;;;25.80;51.40;;;;;;1845128;76;21150;-72
2023/01/28 06:15:33;;;;;;;13.28;9.90;;;25.80;51.20;;;;;;1836974;76;21244;-72
2023/01/28 06:18:04;;;;;;;15.78;10.35;;;25.80;51.30;;;;;;1830031;77;21216;-71
2023/01/28 06:20:35;;;;;;;21.23;10.03;;;25.80;51.00;;;;;;1814277;77;21159;-72
2023/01/28 06:23:06;;;;;;;17.80;9.83;;;25.80;51.50;;;;;;1830314;77;21174;-73
2023/01/28 06:25:37;;;;;;;14.47;9.95;;;25.90;51.40;;;;;;1839739;76;21193;-72
2023/01/28 06:28:16;;;;;;;16.02;9.53;;;26.00;51.20;;;;;;1842887;76;21609;-72
2023/01/28 06:30:48;;;;;;;15.88;9.95;;;26.00;51.10;;;;;;1839384;76;21194;-72
2023/01/28 06:33:21;;;;;;;15.85;10.00;;;25.90;51.40;;;;;;1848784;76;21123;-71
2023/01/28 06:35:52;;;;;;;16.70;10.93;;;25.90;51.60;;;;;;1847257;76;21263;-72
2023/01/28 06:38:23;;;;;;;13.78;9.35;;;25.90;51.90;;;;;;1850266;76;21604;-71
2023/01/28 06:40:55;;;;;;;14.85;9.38;;;26.00;51.40;;;;;;1835568;76;21137;-72
2023/01/28 06:43:30;;;;;;;19.37;10.18;;;26.10;51.10;;;;;;1845394;76;21126;-71
2023/01/28 06:45:58;;;;;;;15.70;9.98;;;26.10;51.10;;;;;;1854463;76;21099;-72
2023/01/28 06:48:29;;;;;;;12.53;9.70;;;26.20;51.40;;;;;;1835897;76;21686;-73
2023/01/28 06:51:00;;;;;;;20.20;9.63;;;26.20;50.90;;;;;;1842763;76;21139;-70
2023/01/28 06:53:31;;;;;;;15.10;9.98;;;26.30;50.70;;;;;;1851159;76;21787;-72
2023/01/28 06:56:02;;;;;;;14.35;9.48;;;26.30;51.60;;;;;;1848306;76;21216;-71
2023/01/28 06:58:33;;;;;;;13.08;9.38;;;26.30;50.80;;;;;;1838031;76;21186;-73
2023/01/28 07:01:04;;;;;;;17.42;9.93;;;26.30;50.90;;;;;;1842617;76;21489;-71
2023/01/28 07:03:36;;;;;;;11.50;9.13;;;26.30;51.00;;;;;;1847998;76;21225;-72
2023/01/28 07:06:07;;;;;;;13.20;9.93;;;26.40;50.70;;;;;;1844917;76;21276;-71
2023/01/28 07:08:38;;;;;;;13.28;9.38;;;26.40;50.40;;;;;;1843094;76;21145;-72
2023/01/28 07:11:10;;;;;;;12.03;9.40;;;26.30;50.50;;;;;;1839721;76;21084;-72
2023/01/28 07:13:40;;;;;;;10.63;8.90;;;26.40;50.20;;;;;;1850471;75;21632;-71
2023/01/28 07:16:11;;;;;;;13.83;9.43;;;26.30;50.20;;;;;;1821337;77;21849;-71
2023/01/28 07:18:42;;;;;;;14.47;9.43;;;26.30;50.30;;;;;;1823220;76;21191;-70
2023/01/28 07:21:13;;;;;;;10.85;8.98;;;26.30;50.70;;;;;;1827330;77;21131;-69
2023/01/28 07:23:45;;;;;;;13.35;9.70;;;26.20;50.60;;;;;;1854693;76;21148;-70
2023/01/28 07:26:36;;;;;;;13.95;9.05;;;26.20;50.60;;;;;;1855002;76;21239;-70
2023/01/28 07:29:08;;;;;;;20.17;9.73;;;26.20;50.60;;;;;;1800052;78;21280;-70
2023/01/28 07:31:39;;;;;;;14.55;9.85;;;26.30;50.50;;;;;;1797116;78;21914;-70
2023/01/28 07:34:11;;;;;;;13.60;9.43;;;26.30;50.50;;;;;;1767250;79;21707;-71
2023/01/28 07:36:42;;;;;;;14.78;9.33;;;26.30;50.30;;;;;;1768737;80;21155;-71
2023/01/28 07:39:13;;;;;;;12.03;8.95;;;26.30;50.40;;;;;;1801957;77;21702;-71
2023/01/28 07:41:46;;;;;;;19.55;10.05;;;26.30;50.40;;;;;;1786994;78;21197;-69
2023/01/28 07:44:16;;;;;;;17.27;9.20;;;26.30;50.60;;;;;;1777874;79;21274;-71
2023/01/28 07:46:47;;;;;;;13.05;8.78;;;26.20;50.80;;;;;;1792268;78;21124;-72
2023/01/28 07:49:18;;;;;;;12.78;7.75;;;26.20;50.80;;;;;;1785471;78;21202;-70
2023/01/28 07:51:49;;;;;;;14.70;8.58;;;26.30;50.40;;;;;;1790878;78;21133;-70
2023/01/28 07:54:20;;;;;;;13.28;8.58;;;26.20;50.50;;;;;;1785987;78;21175;-70
2023/01/28 07:56:51;;;;;;;15.05;9.15;;;26.20;50.20;;;;;;1797079;78;21126;-69
2023/01/28 07:59:23;;;;;;;15.00;10.58;;;26.20;50.60;;;;;;1788109;78;21156;-71
2023/01/28 08:01:54;;;;;;;13.50;9.25;;;26.20;50.60;;;;;;1792549;78;21308;-71
2023/01/28 08:04:25;;;;;;;14.68;8.75;;;26.20;50.60;;;;;;1785429;78;21166;-71
2023/01/28 08:06:57;;;;;;;15.43;9.98;;;26.10;50.00;;;;;;1792750;78;21184;-70
2023/01/28 08:09:28;;;;;;;14.33;9.43;;;26.10;50.30;;;;;;1814140;77;21555;-70
2023/01/28 08:12:01;;;;;;;17.85;9.45;;;26.10;50.40;;;;;;1840296;76;21147;-70
2023/01/28 08:14:32;;;;;;;15.40;9.10;;;26.00;50.10;;;;;;1841040;76;21157;-69
2023/01/28 08:17:03;;;;;;;17.57;10.08;;;26.00;50.40;;;;;;1842392;76;21214;-71
2023/01/28 08:19:34;;;;;;;13.43;9.28;;;26.00;50.50;;;;;;1844701;76;21250;-70
2023/01/28 08:22:05;;;;;;;14.70;9.53;;;25.90;50.90;;;;;;1840710;76;21164;-71
2023/01/28 08:24:36;;;;;;;13.22;9.45;;;26.00;50.70;;;;;;1848665;76;21212;-70
2023/01/28 08:27:09;;;;;;;15.68;9.90;;;26.00;50.90;;;;;;1838319;76;21580;-69
2023/01/28 08:29:40;;;;;;;14.78;9.03;;;26.00;50.90;;;;;;1846005;76;21121;-70
2023/01/28 08:32:13;;;;;;;12.45;9.03;;;25.90;51.00;;;;;;1838096;77;21206;-71
2023/01/28 08:34:44;;;;;;;14.70;9.88;;;25.90;50.40;;;;;;1834584;76;21090;-70
2023/01/28 08:37:15;;;;;;;13.25;9.68;;;25.90;50.70;;;;;;1833715;77;21189;-70
2023/01/28 08:39:46;;;;;;;13.58;9.63;;;25.90;50.90;;;;;;1834446;77;21225;-70
2023/01/28 08:42:18;;;;;;;16.45;9.60;;;25.90;50.90;;;;;;1830008;77;21147;-70
2023/01/28 08:44:49;;;;;;;16.52;9.90;;;25.90;50.90;;;;;;1831328;77;21184;-69
2023/01/28 08:47:20;;;;;;;16.12;10.00;;;25.90;51.20;;;;;;1834144;77;21124;-70
2023/01/28 08:49:51;;;;;;;17.32;10.38;;;25.90;51.10;;;;;;1829963;77;21100;-70
2023/01/28 08:52:22;;;;;;;17.98;11.12;;;25.90;50.80;;;;;;1830681;77;21645;-70
2023/01/28 08:54:53;;;;;;;17.00;10.35;;;25.90;51.20;;;;;;1826404;77;21108;-70
2023/01/28 08:57:24;;;;;;;16.85;10.00;;;25.90;51.00;;;;;;1835112;77;21130;-70
2023/01/28 08:59:55;;;;;;;16.73;9.03;;;25.90;50.60;;;;;;1832528;77;21150;-69
2023/01/28 09:02:26;;;;;;;13.40;9.70;;;25.90;51.00;;;;;;1825815;77;21098;-69
2023/01/28 09:04:59;;;;;;;11.25;8.93;;;25.90;51.20;;;;;;1824072;77;21231;-69
2023/01/28 09:07:30;;;;;;;16.50;10.38;;;25.90;51.10;;;;;;1827958;77;21190;-69
2023/01/28 09:10:00;;;;;;;15.90;8.95;;;25.90;51.20;;;;;;1827609;77;21185;-70
2023/01/28 09:12:31;;;;;;;18.37;9.33;;;25.90;50.80;;;;;;1827652;77;21224;-69
2023/01/28 09:15:03;;;;;;;17.48;9.55;;;25.80;50.80;;;;;;1826312;77;21180;-69
2023/01/28 09:17:34;;;;;;;14.15;8.58;;;25.80;51.00;;;;;;1824073;77;21558;-70
2023/01/28 09:20:07;;;;;;;14.15;8.68;;;25.80;50.70;;;;;;1830747;77;21217;-70
2023/01/28 09:22:38;;;;;;;12.30;9.03;;;25.80;51.10;;;;;;1827062;77;21200;-70
2023/01/28 09:25:09;;;;;;;15.18;9.13;;;25.70;51.40;;;;;;1830934;77;21130;-70
2023/01/28 09:27:42;;;;;;;16.48;9.78;;;25.70;51.10;;;;;;1829380;77;21199;-72
2023/01/28 09:30:13;;;;;;;14.23;9.10;;;25.70;51.30;;;;;;1838402;77;21255;-71
2023/01/28 09:32:44;;;;;;;14.55;9.48;;;25.70;51.40;;;;;;1827812;77;21181;-71
2023/01/28 09:35:15;;;;;;;15.00;9.60;;;25.70;51.60;;;;;;1835475;77;21596;-70
2023/01/28 09:37:46;;;;;;;16.25;9.68;;;25.70;51.90;;;;;;1831481;77;21158;-70
2023/01/28 09:40:22;;;;;;;15.20;8.93;;;25.70;51.80;;;;;;1825401;77;21119;-70
2023/01/28 09:43:04;;;;;;;17.25;10.00;;;25.60;51.80;;;;;;1819295;77;21205;-71
2023/01/28 09:45:42;;;;;;;13.53;9.68;;;25.60;51.80;;;;;;1842130;77;22354;-71
2023/01/28 09:48:18;;;;;;;12.63;9.13;;;25.60;51.80;;;;;;1828972;77;21273;-70
2023/01/28 09:50:52;;;;;;;17.48;8.90;;;25.60;52.10;;;;;;1831069;77;21217;-72
2023/01/28 09:53:43;;;;;;;13.85;8.88;;;25.60;52.10;;;;;;1836226;77;21243;-72
2023/01/28 09:56:28;;;;;;;15.58;9.23;;;25.50;51.60;;;;;;1806593;77;21103;-73
2023/01/28 09:59:21;;;;;;;13.10;9.48;;;25.50;52.00;;;;;;1800531;77;21598;-72
2023/01/28 10:02:01;;;;;;;15.25;9.23;;;25.40;52.30;;;;;;1899145;74;21194;-72
2023/01/28 10:04:34;;;;;;;17.35;9.80;;;25.30;52.60;;;;;;1901965;74;21652;-73
2023/01/28 10:07:20;;;;;;;13.58;9.55;;;25.30;52.80;;;;;;1900146;74;21126;-73
2023/01/28 10:10:05;;;;;;;17.15;10.72;;;25.20;52.70;;;;;;1878625;75;21169;-72
2023/01/28 10:12:56;;;;;;;16.67;9.98;;;25.20;52.50;;;;;;1847261;76;21145;-70
2023/01/28 10:15:41;;;;;;;15.45;9.68;;;25.10;52.60;;;;;;1847293;76;21667;-71
2023/01/28 10:18:13;;;;;;;17.62;9.30;;;25.10;52.80;;;;;;1849990;76;21701;-71
2023/01/28 10:20:51;;;;;;;13.18;8.50;;;25.10;52.80;;;;;;1850305;76;21212;-72
2023/01/28 10:23:27;;;;;;;14.47;9.70;;;25.00;53.00;;;;;;1848169;76;21155;-71
2023/01/28 10:26:00;;;;;;;15.87;8.80;;;24.90;53.00;;;;;;1861098;75;21173;-71
2023/01/28 10:28:33;;;;;;;14.15;9.60;;;24.90;53.30;;;;;;1883197;76;22104;-71
2023/01/28 10:31:05;;;;;;;13.30;8.75;;;24.90;53.60;;;;;;1875769;75;21198;-72
2023/01/28 10:33:39;;;;;;;15.50;9.98;;;24.80;53.70;;;;;;1880175;76;21127;-72
2023/01/28 10:36:12;;;;;;;;;;;24.80;53.90;;;;;;1864050;76;21145;-72
2023/01/28 10:38:43;;;;;;;14.03;9.23;;;24.80;53.90;;;;;;1878218;75;20269;-72
2023/01/28 10:41:17;;;;;;;19.92;10.55;;;24.70;54.10;;;;;;1880089;75;21082;-71
2023/01/28 10:43:48;;;;;;;17.45;10.18;;;24.70;54.20;;;;;;1871498;76;21152;-72
2023/01/28 10:46:23;;;;;;;14.80;9.13;;;24.60;54.50;;;;;;1880428;76;21153;-72
2023/01/28 10:48:56;;;;;;;14.50;10.25;;;24.60;54.70;;;;;;1879490;76;21512;-72
2023/01/28 10:51:39;;;;;;;15.58;10.08;;;24.60;54.90;;;;;;1847206;76;21560;-71
2023/01/28 10:54:27;;;;;;;13.95;10.25;;;24.50;54.90;;;;;;1812661;78;21167;-71
2023/01/28 10:57:00;;;;;;;17.20;10.10;;;24.50;55.10;;;;;;1892478;75;21672;-71
2023/01/28 10:59:33;;;;;;;16.00;10.20;;;24.40;55.30;;;;;;1894308;75;21149;-72
2023/01/28 11:02:24;;;;;;;15.10;10.15;;;24.40;55.40;;;;;;1819428;77;21231;-72
2023/01/28 11:05:24;;;;;;;18.15;12.88;;;24.40;55.50;;;;;;1848911;76;21141;-72
2023/01/28 11:08:16;;;;;;;19.37;12.55;;;24.30;55.70;;;;;;1873540;75;21110;-72
2023/01/28 11:10:47;;;;;;;18.32;10.23;;;24.30;55.90;;;;;;1867347;75;21436;-71
2023/01/28 11:13:21;;;;;;;18.37;10.08;;;24.30;56.20;;;;;;1869454;76;21146;-73
2023/01/28 11:16:03;;;;;;;20.25;10.80;;;24.30;56.20;;;;;;1870673;76;21201;-71
2023/01/28 11:18:37;;;;;;;19.45;10.00;;;24.20;56.30;;;;;;1872929;75;21107;-73
2023/01/28 11:21:16;;;;;;;15.58;10.63;;;24.20;56.40;;;;;;1869338;75;22184;-72
2023/01/28 11:24:02;;;;;;;14.43;10.08;;;24.10;56.60;;;;;;1873701;75;21083;-72
2023/01/28 11:26:39;;;;;;;14.73;10.20;;;24.10;56.90;;;;;;1878552;75;21649;-73
2023/01/28 11:29:25;;;;;;;16.12;10.15;;;24.00;57.10;;;;;;1866470;76;21145;-72
2023/01/28 11:31:56;;;;;;;21.23;10.38;;;24.00;57.20;;;;;;1867015;75;21133;-73
2023/01/28 11:34:33;;;;;;;14.73;9.93;;;24.00;57.40;;;;;;1877310;75;21158;-72
2023/01/28 11:37:06;;;;;;;14.87;9.60;;;23.90;57.60;;;;;;1877525;75;21194;-73
2023/01/28 11:39:37;;;;;;;14.25;9.75;;;23.90;58.40;;;;;;1881185;75;21088;-72
2023/01/28 11:42:22;;;;;;;13.45;8.88;;;23.90;57.80;;;;;;1881814;75;21063;-72
2023/01/28 11:44:53;;;;;;;13.88;8.83;;;23.90;57.90;;;;;;1879397;75;21164;-72
2023/01/28 11:47:30;;;;;;;15.75;9.48;;;23.80;58.10;;;;;;1880674;75;21233;-71
2023/01/28 11:50:06;;;;;;;16.55;9.98;;;23.80;58.30;;;;;;1868437;75;21143;-72
2023/01/28 11:52:51;;;;;;;16.73;9.83;;;23.80;58.30;;;;;;1879987;75;21134;-72
2023/01/28 11:55:58;;;;;;;16.82;9.93;;;23.80;58.50;;;;;;1879110;75;21121;-73
2023/01/28 11:58:48;;;;;;;14.70;10.28;;;23.70;58.60;;;;;;1848803;76;21546;-71
2023/01/28 12:01:24;;;;;;;18.98;10.25;;;23.70;58.80;;;;;;1840155;76;22006;-73
2023/01/28 12:04:09;;;;;;;18.23;11.00;;;23.70;58.80;;;;;;1850951;76;21166;-72
2023/01/28 12:06:59;;;;;;;23.40;10.75;;;23.70;59.00;;;;;;1848547;76;21166;-71
2023/01/28 12:09:38;;;;;;;17.00;10.90;;;23.60;59.10;;;;;;1851254;76;21091;-71
2023/01/28 12:12:17;;;;;;;16.90;10.70;;;23.60;59.20;;;;;;1855340;75;21162;-75
2023/01/28 12:15:28;;;;;;;17.85;10.85;;;23.60;59.40;;;;;;1889166;75;21707;-85
2023/01/28 12:18:31;;;;;;;20.60;11.57;;;23.50;59.30;;;;;;1891079;75;21170;-85
2023/01/28 12:21:09;;;;;;;16.97;11.65;;;23.50;59.40;;;;;;1824769;77;21268;-87
2023/01/28 12:23:49;;;;;;;20.05;11.93;;;23.50;59.50;;;;;;1882299;74;21079;-91
2023/01/28 12:26:58;;;;;;;21.07;12.60;;;23.50;59.80;;;;;;1879606;74;21231;-87
2023/01/28 12:29:49;;;;;;;18.48;11.22;;;23.40;60.00;;;;;;1882219;75;21083;-91
2023/01/28 12:32:23;;;;;;;18.75;12.03;;;23.40;61.00;;;;;;1878772;76;21509;-88
2023/01/28 12:35:11;;;;;;;18.75;11.75;;;23.40;61.20;;;;;;1879967;76;21170;-91
2023/01/28 12:38:02;;;;;;;22.15;12.13;;;23.30;60.70;;;;;;1876351;75;21133;-90
2023/01/28 12:40:35;;;;;;;18.52;11.73;;;23.30;60.80;;;;;;1878487;76;21138;-91
2023/01/28 12:43:17;;;;;;;23.87;12.13;;;23.20;60.90;;;;;;1879216;75;21149;-88
2023/01/28 12:45:54;;;;;;;18.73;11.78;;;23.20;61.10;;;;;;1881573;76;21120;-89
2023/01/28 12:48:39;;;;;;;19.55;12.23;;;23.20;61.20;;;;;;1879208;75;21231;-89
2023/01/28 12:51:18;;;;;;;20.25;12.40;;;23.20;61.40;;;;;;1880318;75;21098;-90
2023/01/28 12:54:16;;;;;;;27.82;12.03;;;23.10;61.20;;;;;;1878295;74;21133;-89
2023/01/28 12:57:08;;;;;;;22.87;13.00;;;23.10;61.30;;;;;;1878523;74;21146;-90
2023/01/28 12:59:49;;;;;;;22.05;12.40;;;23.10;61.30;;;;;;1877226;76;21491;-90
2023/01/28 13:02:26;;;;;;;17.32;12.13;;;23.10;61.50;;;;;;1877410;76;21297;-88
2023/01/28 13:05:15;;;;;;;21.25;12.55;;;23.00;61.60;;;;;;1878561;75;21078;-89
2023/01/28 13:08:04;;;;;;;25.60;12.37;;;23.00;61.80;;;;;;1878935;76;21254;-92
2023/01/28 13:10:44;;;;;;;20.60;12.30;;;23.00;62.30;;;;;;1872415;76;21079;-90
2023/01/28 13:13:17;;;;;;;24.12;13.10;;;23.00;62.50;;;;;;1875420;76;21227;-91
2023/01/28 13:15:49;;;;;;;19.20;11.65;;;22.90;62.70;;;;;;1890010;74;21080;-89
2023/01/28 13:18:44;;;;;;;22.67;12.95;;;22.90;63.00;;;;;;1882277;74;21046;-89
2023/01/28 13:21:26;;;;;;;18.07;12.45;;;22.80;63.10;;;;;;1890350;75;21218;-91
2023/01/28 13:24:07;;;;;;;21.37;12.93;;;22.80;63.50;;;;;;1856819;76;21807;-89
2023/01/28 13:26:43;;;;;;;30.30;13.30;;;22.70;63.60;;;;;;1866456;75;21175;-87
2023/01/28 13:29:26;;;;;;;20.72;12.63;;;22.70;63.80;;;;;;1854015;76;21269;-90
2023/01/28 13:32:01;;;;;;;23.45;14.15;;;22.70;63.90;;;;;;1879669;76;21099;-90
2023/01/28 13:34:42;;;;;;;26.68;15.18;;;22.70;63.90;;;;;;1882948;76;21206;-90
2023/01/28 13:37:21;;;;;;;27.30;14.75;;;22.60;64.20;;;;;;1881962;74;21627;-88
2023/01/28 13:39:54;;;;;;;22.02;14.53;;;22.60;64.20;;;;;;1883005;76;21161;-88
2023/01/28 13:42:29;;;;;;;31.55;15.90;;;22.60;64.40;;;;;;1866406;76;21145;-89